Island Mist — WDH9725 — position and weather

sailwx.info

Track history (hours):
 
Tides and Currents Weather Stations Pressure Air Temp Water Temp Dewpoint Dewpoint Depression Visibility Wind Speed Wind Dir Waves Ship Positions

Island Mist

Owner: Island Tug & Barge Co., Seattle, WA. More information available from US FCC via Universal Licensing System and Coast Guard Vessel Documentation Center.

Last reported at 2018-Aug-19 15:00 UTC. Time now 2018-Aug-19 15:20 UTC.
Position N 49°15' W 123°15'.

Length 30 m; draft 3.5 m.

Type: Towing. MMSI: 367670970.

Date/timePositionNaut miles runAvg speedWind from/ knotsBaromVisibWave heightAir tempDewpointWater temp
2018-Aug-19 15:00N 49°15' W 123°15'0 0.1
2018-Aug-19 14:30N 49°15' W 123°15'0 0.0
2018-Aug-19 14:00N 49°15' W 123°15'0 0.0
2018-Aug-19 13:30N 49°15' W 123°15'0 0.0
2018-Aug-19 13:00N 49°15' W 123°15'0 0.0
2018-Aug-19 12:30N 49°15' W 123°15'0 0.0
2018-Aug-19 11:59N 49°15' W 123°15'0 0.0
2018-Aug-19 11:30N 49°15' W 123°15'0 0.0
2018-Aug-19 11:00N 49°15' W 123°15'0 0.0
2018-Aug-19 10:30N 49°15' W 123°15'0 0.0
2018-Aug-19 10:00N 49°15' W 123°15'0 0.0
2018-Aug-19 09:30N 49°15' W 123°15'0 0.0
2018-Aug-19 09:00N 49°15' W 123°15'0 0.0
2018-Aug-19 08:30N 49°15' W 123°15'0 0.0
2018-Aug-19 08:00N 49°15' W 123°15'0 0.0
2018-Aug-19 07:30N 49°15' W 123°15'0 0.0
2018-Aug-19 07:01N 49°15' W 123°15'0 0.0
2018-Aug-19 06:30N 49°15' W 123°15'0 0.4
2018-Aug-19 06:01N 49°15' W 123°16'2 3.4
2018-Aug-19 05:30N 49°15' W 123°18'2 3.9
2018-Aug-19 05:00N 49°13' W 123°19'4 8.1
2018-Aug-19 04:30N 49°09' W 123°20'4 7.6
2018-Aug-19 04:00N 49°05' W 123°20'4 7.9
2018-Aug-19 03:30N 49°02' W 123°17'4 8.0
2018-Aug-19 03:00N 48°59' W 123°12'4 8.1
2018-Aug-19 02:30N 48°57' W 123°08'4 8.1
2018-Aug-19 01:59N 48°54' W 123°02'4 7.4
2018-Aug-19 01:27N 48°51' W 122°58'3 6.4
2018-Aug-19 00:55N 48°49' W 122°54'9 7.2
2018-Aug-18 23:40N 48°43' W 122°44'1 6.2
2018-Aug-18 23:30N 48°42' W 122°43'3 6.3
2018-Aug-18 23:00N 48°39' W 122°43'3 6.1
2018-Aug-18 22:30N 48°36' W 122°45'3 6.4
2018-Aug-18 22:00N 48°33' W 122°45'4 7.3
2018-Aug-18 21:30N 48°29' W 122°44'33 6.2
2018-Aug-18 16:08N 47°57' W 122°32'1 6.1
2018-Aug-18 15:57N 47°57' W 122°31'3 6.9
2018-Aug-18 15:30N 47°54' W 122°28'4 7.5
2018-Aug-18 15:00N 47°51' W 122°27'4 8.1
2018-Aug-18 14:30N 47°47' W 122°26'4 7.8
2018-Aug-18 14:00N 47°43' W 122°26'4 7.7
2018-Aug-18 13:30N 47°39' W 122°27'4 7.4
2018-Aug-18 13:00N 47°36' W 122°23'2 4.4
2018-Aug-18 12:30N 47°34' W 122°21'1 1.5
2018-Aug-18 12:00N 47°34' W 122°21'0 0.2
2018-Aug-18 11:30N 47°34' W 122°21'1 1.2
2018-Aug-18 11:00N 47°34' W 122°21'0 0.0
2018-Aug-18 10:30N 47°34' W 122°21'0 0.0
2018-Aug-18 10:00N 47°34' W 122°21'0 0.0
2018-Aug-18 09:31N 47°34' W 122°21'0 0.0
2018-Aug-18 09:00N 47°34' W 122°21'0 0.0
2018-Aug-18 08:30N 47°34' W 122°21'0 0.0
2018-Aug-18 08:00N 47°34' W 122°21'0 0.0
2018-Aug-18 07:30N 47°34' W 122°21'0 0.0
2018-Aug-18 07:00N 47°34' W 122°21'0 0.0
2018-Aug-18 06:31N 47°34' W 122°21'0 0.0
2018-Aug-18 06:00N 47°34' W 122°21'0 0.0
2018-Aug-18 05:30N 47°34' W 122°21'0 0.0
2018-Aug-18 05:00N 47°34' W 122°21'0 0.0
2018-Aug-18 04:31N 47°34' W 122°21'0 0.0
2018-Aug-18 03:58N 47°34' W 122°21'0 0.0
2018-Aug-18 03:30N 47°34' W 122°21'0 0.0
2018-Aug-18 03:00N 47°34' W 122°21'0 0.0
2018-Aug-18 02:30N 47°34' W 122°21'0 0.0
2018-Aug-18 02:00N 47°34' W 122°21'0 0.0
2018-Aug-18 01:30N 47°34' W 122°21'0 0.0
2018-Aug-16 13:39N 47°34' W 122°21'0 3.0
2018-Aug-16 13:30N 47°34' W 122°21'1 2.5
2018-Aug-16 13:00N 47°35' W 122°22'1 2.0
2018-Aug-16 12:30N 47°36' W 122°23'0 0.2
2018-Aug-16 12:00N 47°36' W 122°23'0 0.2
2018-Aug-16 11:31N 47°36' W 122°23'0 0.4
2018-Aug-16 11:00N 47°36' W 122°23'1 2.1
2018-Aug-16 10:30N 47°36' W 122°24'1 2.8
2018-Aug-16 10:00N 47°35' W 122°26'3 5.4
2018-Aug-16 09:30N 47°32' W 122°27'3 5.1
2018-Aug-16 09:00N 47°30' W 122°29'2 3.6
2018-Aug-16 08:30N 47°28' W 122°31'3 5.7
2018-Aug-16 08:00N 47°26' W 122°31'3 5.1
2018-Aug-16 07:30N 47°23' W 122°32'3 5.0
2018-Aug-16 07:00N 47°21' W 122°32'4 7.2
2018-Aug-16 06:30N 47°17' W 122°33'4 7.6
2018-Aug-16 06:00N 47°13' W 122°35'3 6.1
2018-Aug-16 05:30N 47°11' W 122°38'3 5.6
2018-Aug-16 05:00N 47°08' W 122°39'0 0.7
2018-Aug-16 04:30N 47°08' W 122°39'0 0.0
2018-Aug-16 04:00N 47°08' W 122°39'0 0.0
2018-Aug-16 03:28N 47°08' W 122°39'0 0.0
2018-Aug-16 02:59N 47°08' W 122°39'0 0.1
2018-Aug-16 02:29N 47°08' W 122°39'0 0.4
2018-Aug-16 01:59N 47°08' W 122°39'0 0.5
2018-Aug-16 01:30N 47°08' W 122°39'0 0.4
2018-Aug-16 00:55N 47°08' W 122°39'0 0.8
2018-Aug-16 00:24N 47°08' W 122°39'0 0.6
2018-Aug-16 00:00N 47°08' W 122°39'0 0.3
2018-Aug-15 23:25N 47°08' W 122°38'0 0.1
2018-Aug-15 22:39N 47°09' W 122°38'0 0.6
2018-Aug-15 22:29N 47°09' W 122°38'1 1.6
2018-Aug-15 22:00N 47°09' W 122°39'0 0.9
2018-Aug-15 21:30N 47°10' W 122°39'0 0.4
2018-Aug-15 21:00N 47°09' W 122°39'1 1.3
2018-Aug-15 20:30N 47°10' W 122°39'3 5.6
2018-Aug-15 20:00N 47°12' W 122°36'2 4.4
2018-Aug-15 19:30N 47°14' W 122°35'2 3.0
2018-Aug-15 19:00N 47°15' W 122°34'1 1.9
2018-Aug-15 18:30N 47°16' W 122°33'1 1.9
2018-Aug-15 18:00N 47°17' W 122°33'2 3.2
2018-Aug-15 17:30N 47°19' W 122°34'2 4.8
2018-Aug-15 17:00N 47°21' W 122°33'3 5.3
2018-Aug-15 16:30N 47°24' W 122°32'3 5.2
2018-Aug-15 16:00N 47°26' W 122°31'3 5.4
2018-Aug-15 15:30N 47°29' W 122°30'3 5.5
2018-Aug-15 15:00N 47°31' W 122°29'3 6.1
2018-Aug-15 14:30N 47°34' W 122°26'3 6.0
2018-Aug-15 14:00N 47°36' W 122°23'2 4.2
2018-Aug-15 13:29N 47°34' W 122°21'0 0.9
2018-Aug-15 13:00N 47°34' W 122°21'0 0.7
2018-Aug-15 12:30N 47°34' W 122°21'0 0.1
2018-Aug-15 12:00N 47°34' W 122°21'0 0.7
2018-Aug-15 11:30N 47°34' W 122°21'0 0.7
2018-Aug-15 11:00N 47°34' W 122°21'0 0.0
2018-Aug-15 10:30N 47°34' W 122°21'0 0.0
2018-Aug-15 10:00N 47°34' W 122°21'0 0.0
2018-Aug-15 09:30N 47°34' W 122°21'0 0.0
2018-Aug-15 09:00N 47°34' W 122°21'0 0.0
2018-Aug-15 08:30N 47°34' W 122°21'0 0.0
2018-Aug-15 08:00N 47°34' W 122°21'0 0.0
2018-Aug-15 07:30N 47°34' W 122°21'0 0.0
2018-Aug-15 07:00N 47°34' W 122°21'0 0.0
2018-Aug-15 06:30N 47°34' W 122°21'0 0.0
2018-Aug-15 06:00N 47°34' W 122°21'0 0.0
2018-Aug-15 05:30N 47°34' W 122°21'0 0.0
2018-Aug-15 05:00N 47°34' W 122°21'0 0.0
2018-Aug-15 04:30N 47°34' W 122°21'0 0.0
2018-Aug-15 04:00N 47°34' W 122°21'0 0.4
2018-Aug-15 03:30N 47°34' W 122°21'0 1.0
2018-Aug-15 03:00N 47°34' W 122°21'2 3.6
2018-Aug-15 02:30N 47°35' W 122°22'1 2.9
2018-Aug-15 02:00N 47°36' W 122°23'3 5.9
2018-Aug-15 01:30N 47°38' W 122°27'3 6.1
2018-Aug-15 01:00N 47°41' W 122°28'3 6.3
2018-Aug-15 00:30N 47°44' W 122°27'3 6.3
2018-Aug-15 00:00N 47°47' W 122°27'3 6.4
2018-Aug-14 23:30N 47°50' W 122°28'3 6.8
2018-Aug-14 23:00N 47°54' W 122°30'3 6.6
2018-Aug-14 22:30N 47°56' W 122°32'30 4.1
2018-Aug-14 15:23N 48°25' W 122°45'3 6.2
2018-Aug-14 14:57N 48°27' W 122°45'3 6.1
2018-Aug-14 14:30N 48°30' W 122°45'3 5.4
2018-Aug-14 14:00N 48°33' W 122°45'2 5.0
2018-Aug-14 13:30N 48°35' W 122°45'3 5.0
2018-Aug-14 13:00N 48°38' W 122°44'2 4.8
2018-Aug-14 12:30N 48°40' W 122°43'12 6.0
2018-Aug-14 10:25N 48°49' W 122°57'3 6.8
2018-Aug-14 09:58N 48°50' W 123°01'3 6.3
2018-Aug-14 09:30N 48°52' W 123°04'3 6.9
2018-Aug-14 09:00N 48°54' W 123°08'4 7.0
2018-Aug-14 08:30N 48°56' W 123°12'3 6.8
2018-Aug-14 08:00N 48°58' W 123°17'4 7.0
2018-Aug-14 07:29N 49°01' W 123°21'4 7.5
2018-Aug-14 07:00N 49°03' W 123°25'4 7.2
2018-Aug-14 06:30N 49°06' W 123°28'3 6.8
2018-Aug-14 06:00N 49°08' W 123°32'4 7.2
2018-Aug-14 05:30N 49°11' W 123°36'4 7.1
2018-Aug-14 04:59N 49°13' W 123°40'3 6.7
2018-Aug-14 04:30N 49°15' W 123°44'3 6.8
2018-Aug-14 04:00N 49°18' W 123°48'3 6.5
2018-Aug-14 03:30N 49°20' W 123°51'3 6.2
2018-Aug-14 03:00N 49°22' W 123°55'3 6.0
2018-Aug-14 02:27N 49°24' W 123°59'22 5.8
2018-Aug-13 22:42N 49°36' W 124°27'3 6.3
2018-Aug-13 22:11N 49°38' W 124°30'1 6.5
2018-Aug-13 22:00N 49°39' W 124°32'3 1.6
2018-Aug-13 20:24N 49°42' W 124°33'0 0.0
2018-Aug-13 19:41N 49°42' W 124°33'0 0.0
2018-Aug-13 19:25N 49°42' W 124°33'0 0.0
2018-Aug-13 18:53N 49°42' W 124°33'0 0.0
2018-Aug-13 18:28N 49°42' W 124°33'0 0.0
2018-Aug-13 17:55N 49°42' W 124°33'0 0.0
2018-Aug-13 17:29N 49°42' W 124°33'0 0.0
2018-Aug-13 16:51N 49°42' W 124°33'0 0.1
2018-Aug-13 12:33N 49°41' W 124°34'0 2.9
2018-Aug-13 12:30N 49°41' W 124°34'1 2.5
2018-Aug-13 12:00N 49°40' W 124°33'2 3.2
2018-Aug-13 11:27N 49°39' W 124°32'1 3.2
2018-Aug-13 10:59N 49°38' W 124°30'2 3.3
2018-Aug-13 10:28N 49°37' W 124°28'2 3.6
2018-Aug-13 09:47N 49°35' W 124°25'11 3.9
2018-Aug-13 06:51N 49°29' W 124°10'2 3.8
2018-Aug-13 06:28N 49°28' W 124°08'2 3.4
2018-Aug-13 06:00N 49°28' W 124°06'2 3.4
2018-Aug-13 05:30N 49°27' W 124°03'2 3.5
2018-Aug-13 05:00N 49°26' W 124°01'2 3.2
2018-Aug-13 04:30N 49°25' W 123°59'2 3.4
2018-Aug-13 03:59N 49°24' W 123°57'2 3.3
2018-Aug-13 03:30N 49°23' W 123°55'2 3.9
2018-Aug-13 03:00N 49°22' W 123°53'2 4.3
2018-Aug-13 02:30N 49°21' W 123°50'2 4.3
2018-Aug-13 02:00N 49°19' W 123°47'2 4.9
2018-Aug-13 01:30N 49°18' W 123°45'2 4.3
2018-Aug-13 01:00N 49°16' W 123°42'2 4.7
2018-Aug-13 00:30N 49°15' W 123°39'2 4.6
2018-Aug-13 00:00N 49°13' W 123°37'2 4.7
2018-Aug-12 23:30N 49°12' W 123°34'3 5.1
2018-Aug-12 23:00N 49°10' W 123°31'3 5.2
2018-Aug-12 22:30N 49°08' W 123°28'3 6.3
2018-Aug-12 22:00N 49°06' W 123°25'4 7.8
2018-Aug-12 21:30N 49°04' W 123°20'3 5.9
2018-Aug-12 21:00N 49°02' W 123°17'3 5.7
2018-Aug-12 20:27N 48°60' W 123°13'2 5.3
2018-Aug-12 20:00N 48°58' W 123°10'2 4.7
2018-Aug-12 19:30N 48°57' W 123°07'2 4.2
2018-Aug-12 18:59N 48°55' W 123°05'2 4.9
2018-Aug-12 18:29N 48°54' W 123°02'3 4.6
2018-Aug-12 17:50N 48°52' W 122°59'1 3.4
2018-Aug-12 17:26N 48°51' W 122°57'12 4.9
2018-Aug-12 15:05N 48°43' W 122°44'1 5.6
2018-Aug-12 14:59N 48°43' W 122°43'3 6.1
2018-Aug-12 14:30N 48°40' W 122°42'3 6.0
2018-Aug-12 14:00N 48°37' W 122°44'3 5.7
2018-Aug-12 13:30N 48°34' W 122°45'3 6.5
2018-Aug-12 13:00N 48°31' W 122°44'36 5.8
2018-Aug-12 06:54N 47°57' W 122°31'3 7.6
2018-Aug-12 06:30N 47°54' W 122°28'4 8.0
2018-Aug-12 06:00N 47°50' W 122°27'4 7.7
2018-Aug-12 05:30N 47°47' W 122°26'4 8.2
2018-Aug-12 05:00N 47°42' W 122°26'4 8.2
2018-Aug-12 04:30N 47°38' W 122°27'4 7.3
2018-Aug-12 04:00N 47°36' W 122°23'2 3.6
2018-Aug-12 03:30N 47°35' W 122°22'2 3.8
2018-Aug-12 03:00N 47°33' W 122°20'2 4.0
2018-Aug-12 02:30N 47°35' W 122°22'1 1.2
2018-Aug-12 02:00N 47°35' W 122°22'1 1.8
2018-Aug-12 01:30N 47°34' W 122°21'0 0.0
2018-Aug-12 01:00N 47°34' W 122°21'0 0.0
2018-Aug-12 00:30N 47°34' W 122°21'0 0.0
2018-Aug-12 00:00N 47°34' W 122°21'0 0.0
2018-Aug-11 23:30N 47°34' W 122°21'0 0.0
2018-Aug-11 23:00N 47°34' W 122°21'0 0.0
2018-Aug-11 22:30N 47°34' W 122°21'0 0.0
2018-Aug-11 22:00N 47°34' W 122°21'0 0.0
2018-Aug-11 21:30N 47°34' W 122°21'0 0.0
2018-Aug-11 21:00N 47°34' W 122°21'0 0.0
2018-Aug-11 20:30N 47°34' W 122°21'0 0.0
2018-Aug-11 20:00N 47°34' W 122°21'1 2.0
2018-Aug-11 19:30N 47°35' W 122°22'0 0.8
2018-Aug-11 19:00N 47°36' W 122°22'3 5.1
2018-Aug-11 18:30N 47°33' W 122°21'0 1.0
2018-Aug-11 18:00N 47°33' W 122°20'2 4.3
2018-Aug-11 17:30N 47°35' W 122°22'3 5.1
2018-Aug-11 17:00N 47°35' W 122°25'4 7.4
2018-Aug-11 16:30N 47°31' W 122°25'4 8.0
2018-Aug-11 16:00N 47°28' W 122°24'4 7.8
2018-Aug-11 15:30N 47°24' W 122°21'3 6.4
2018-Aug-11 15:00N 47°21' W 122°24'4 8.0
2018-Aug-11 14:30N 47°18' W 122°28'4 4.7
2018-Aug-11 13:45N 47°17' W 122°23'0 0.0
2018-Aug-11 13:30N 47°17' W 122°23'4 7.3
2018-Aug-11 13:00N 47°18' W 122°28'4 7.5
2018-Aug-11 12:30N 47°21' W 122°25'4 7.2
2018-Aug-11 12:00N 47°25' W 122°23'4 8.9
2018-Aug-11 11:30N 47°29' W 122°24'4 9.0
2018-Aug-11 11:00N 47°34' W 122°25'3 5.8
2018-Aug-11 10:30N 47°35' W 122°22'1 2.2
2018-Aug-11 10:00N 47°34' W 122°21'0 0.0
2018-Aug-11 09:30N 47°34' W 122°21'0 0.0
2018-Aug-11 09:00N 47°34' W 122°21'0 0.0
2018-Aug-11 08:30N 47°34' W 122°21'0 0.0
2018-Aug-11 08:00N 47°34' W 122°21'0 0.0
2018-Aug-11 07:30N 47°34' W 122°21'0 0.0
2018-Aug-11 07:00N 47°34' W 122°21'0 0.0
2018-Aug-11 06:30N 47°34' W 122°21'0 0.0
2018-Aug-11 06:00N 47°34' W 122°21'0 0.0
2018-Aug-11 05:30N 47°34' W 122°21'0 0.0
2018-Aug-11 05:00N 47°34' W 122°21'0 0.0
2018-Aug-11 04:30N 47°34' W 122°21'0 0.0
2018-Aug-11 04:00N 47°34' W 122°21'0 0.0
2018-Aug-11 03:30N 47°34' W 122°21'0 0.0
2018-Aug-11 03:00N 47°34' W 122°21'0 0.0
2018-Aug-11 02:30N 47°34' W 122°21'0 0.7
2018-Aug-11 02:00N 47°34' W 122°21'0 0.3
2018-Aug-11 01:30N 47°34' W 122°21'1 1.0
2018-Aug-11 01:00N 47°34' W 122°21'1 1.3
2018-Aug-11 00:30N 47°35' W 122°22'3 6.7
2018-Aug-11 00:00N 47°38' W 122°25'3 6.4
2018-Aug-10 23:30N 47°41' W 122°26'4 7.5
2018-Aug-10 23:00N 47°44' W 122°25'4 7.7
2018-Aug-10 22:30N 47°48' W 122°24'4 7.1
2018-Aug-10 22:00N 47°51' W 122°22'3 6.8
2018-Aug-10 21:30N 47°54' W 122°20'4 7.1
2018-Aug-10 20:59N 47°58' W 122°18'  
Track history (hours):
 
Tides and Currents Weather Stations Pressure Air Temp Water Temp Dewpoint Dewpoint Depression Visibility Wind Speed Wind Dir Waves Ship Positions

Island Mist

Owner: Island Tug & Barge Co., Seattle, WA. More information available from US FCC via Universal Licensing System and Coast Guard Vessel Documentation Center.

Last reported at 2018-Aug-19 15:00 UTC. Time now 2018-Aug-19 15:20 UTC.
Position N 49°15' W 123°15'.

Length 30 m; draft 3.5 m.

Type: Towing. MMSI: 367670970.

Date/timePositionNaut miles runAvg speedWind from/ knotsBaromVisibWave heightAir tempDewpointWater temp
2018-Aug-19 15:00N 49°15' W 123°15'0 0.1
2018-Aug-19 14:30N 49°15' W 123°15'0 0.0
2018-Aug-19 14:00N 49°15' W 123°15'0 0.0
2018-Aug-19 13:30N 49°15' W 123°15'0 0.0
2018-Aug-19 13:00N 49°15' W 123°15'0 0.0
2018-Aug-19 12:30N 49°15' W 123°15'0 0.0
2018-Aug-19 11:59N 49°15' W 123°15'0 0.0
2018-Aug-19 11:30N 49°15' W 123°15'0 0.0
2018-Aug-19 11:00N 49°15' W 123°15'0 0.0
2018-Aug-19 10:30N 49°15' W 123°15'0 0.0
2018-Aug-19 10:00N 49°15' W 123°15'0 0.0
2018-Aug-19 09:30N 49°15' W 123°15'0 0.0
2018-Aug-19 09:00N 49°15' W 123°15'0 0.0
2018-Aug-19 08:30N 49°15' W 123°15'0 0.0
2018-Aug-19 08:00N 49°15' W 123°15'0 0.0
2018-Aug-19 07:30N 49°15' W 123°15'0 0.0
2018-Aug-19 07:01N 49°15' W 123°15'0 0.0
2018-Aug-19 06:30N 49°15' W 123°15'0 0.4
2018-Aug-19 06:01N 49°15' W 123°16'2 3.4
2018-Aug-19 05:30N 49°15' W 123°18'2 3.9
2018-Aug-19 05:00N 49°13' W 123°19'4 8.1
2018-Aug-19 04:30N 49°09' W 123°20'4 7.6
2018-Aug-19 04:00N 49°05' W 123°20'4 7.9
2018-Aug-19 03:30N 49°02' W 123°17'4 8.0
2018-Aug-19 03:00N 48°59' W 123°12'4 8.1
2018-Aug-19 02:30N 48°57' W 123°08'4 8.1
2018-Aug-19 01:59N 48°54' W 123°02'4 7.4
2018-Aug-19 01:27N 48°51' W 122°58'3 6.4
2018-Aug-19 00:55N 48°49' W 122°54'9 7.2
2018-Aug-18 23:40N 48°43' W 122°44'1 6.2
2018-Aug-18 23:30N 48°42' W 122°43'3 6.3
2018-Aug-18 23:00N 48°39' W 122°43'3 6.1
2018-Aug-18 22:30N 48°36' W 122°45'3 6.4
2018-Aug-18 22:00N 48°33' W 122°45'4 7.3
2018-Aug-18 21:30N 48°29' W 122°44'33 6.2
2018-Aug-18 16:08N 47°57' W 122°32'1 6.1
2018-Aug-18 15:57N 47°57' W 122°31'3 6.9
2018-Aug-18 15:30N 47°54' W 122°28'4 7.5
2018-Aug-18 15:00N 47°51' W 122°27'4 8.1
2018-Aug-18 14:30N 47°47' W 122°26'4 7.8
2018-Aug-18 14:00N 47°43' W 122°26'4 7.7
2018-Aug-18 13:30N 47°39' W 122°27'4 7.4
2018-Aug-18 13:00N 47°36' W 122°23'2 4.4
2018-Aug-18 12:30N 47°34' W 122°21'1 1.5
2018-Aug-18 12:00N 47°34' W 122°21'0 0.2
2018-Aug-18 11:30N 47°34' W 122°21'1 1.2
2018-Aug-18 11:00N 47°34' W 122°21'0 0.0
2018-Aug-18 10:30N 47°34' W 122°21'0 0.0
2018-Aug-18 10:00N 47°34' W 122°21'0 0.0
2018-Aug-18 09:31N 47°34' W 122°21'0 0.0
2018-Aug-18 09:00N 47°34' W 122°21'0 0.0
2018-Aug-18 08:30N 47°34' W 122°21'0 0.0
2018-Aug-18 08:00N 47°34' W 122°21'0 0.0
2018-Aug-18 07:30N 47°34' W 122°21'0 0.0
2018-Aug-18 07:00N 47°34' W 122°21'0 0.0
2018-Aug-18 06:31N 47°34' W 122°21'0 0.0
2018-Aug-18 06:00N 47°34' W 122°21'0 0.0
2018-Aug-18 05:30N 47°34' W 122°21'0 0.0
2018-Aug-18 05:00N 47°34' W 122°21'0 0.0
2018-Aug-18 04:31N 47°34' W 122°21'0 0.0
2018-Aug-18 03:58N 47°34' W 122°21'0 0.0
2018-Aug-18 03:30N 47°34' W 122°21'0 0.0
2018-Aug-18 03:00N 47°34' W 122°21'0 0.0
2018-Aug-18 02:30N 47°34' W 122°21'0 0.0
2018-Aug-18 02:00N 47°34' W 122°21'0 0.0
2018-Aug-18 01:30N 47°34' W 122°21'0 0.0
2018-Aug-16 13:39N 47°34' W 122°21'0 3.0
2018-Aug-16 13:30N 47°34' W 122°21'1 2.5
2018-Aug-16 13:00N 47°35' W 122°22'1 2.0
2018-Aug-16 12:30N 47°36' W 122°23'0 0.2
2018-Aug-16 12:00N 47°36' W 122°23'0 0.2
2018-Aug-16 11:31N 47°36' W 122°23'0 0.4
2018-Aug-16 11:00N 47°36' W 122°23'1 2.1
2018-Aug-16 10:30N 47°36' W 122°24'1 2.8
2018-Aug-16 10:00N 47°35' W 122°26'3 5.4
2018-Aug-16 09:30N 47°32' W 122°27'3 5.1
2018-Aug-16 09:00N 47°30' W 122°29'2 3.6
2018-Aug-16 08:30N 47°28' W 122°31'3 5.7
2018-Aug-16 08:00N 47°26' W 122°31'3 5.1
2018-Aug-16 07:30N 47°23' W 122°32'3 5.0
2018-Aug-16 07:00N 47°21' W 122°32'4 7.2
2018-Aug-16 06:30N 47°17' W 122°33'4 7.6
2018-Aug-16 06:00N 47°13' W 122°35'3 6.1
2018-Aug-16 05:30N 47°11' W 122°38'3 5.6
2018-Aug-16 05:00N 47°08' W 122°39'0 0.7
2018-Aug-16 04:30N 47°08' W 122°39'0 0.0
2018-Aug-16 04:00N 47°08' W 122°39'0 0.0
2018-Aug-16 03:28N 47°08' W 122°39'0 0.0
2018-Aug-16 02:59N 47°08' W 122°39'0 0.1
2018-Aug-16 02:29N 47°08' W 122°39'0 0.4
2018-Aug-16 01:59N 47°08' W 122°39'0 0.5
2018-Aug-16 01:30N 47°08' W 122°39'0 0.4
2018-Aug-16 00:55N 47°08' W 122°39'0 0.8
2018-Aug-16 00:24N 47°08' W 122°39'0 0.6
2018-Aug-16 00:00N 47°08' W 122°39'0 0.3
2018-Aug-15 23:25N 47°08' W 122°38'0 0.1
2018-Aug-15 22:39N 47°09' W 122°38'0 0.6
2018-Aug-15 22:29N 47°09' W 122°38'1 1.6
2018-Aug-15 22:00N 47°09' W 122°39'0 0.9
2018-Aug-15 21:30N 47°10' W 122°39'0 0.4
2018-Aug-15 21:00N 47°09' W 122°39'1 1.3
2018-Aug-15 20:30N 47°10' W 122°39'3 5.6
2018-Aug-15 20:00N 47°12' W 122°36'2 4.4
2018-Aug-15 19:30N 47°14' W 122°35'2 3.0
2018-Aug-15 19:00N 47°15' W 122°34'1 1.9
2018-Aug-15 18:30N 47°16' W 122°33'1 1.9
2018-Aug-15 18:00N 47°17' W 122°33'2 3.2
2018-Aug-15 17:30N 47°19' W 122°34'2 4.8
2018-Aug-15 17:00N 47°21' W 122°33'3 5.3
2018-Aug-15 16:30N 47°24' W 122°32'3 5.2
2018-Aug-15 16:00N 47°26' W 122°31'3 5.4
2018-Aug-15 15:30N 47°29' W 122°30'3 5.5
2018-Aug-15 15:00N 47°31' W 122°29'3 6.1
2018-Aug-15 14:30N 47°34' W 122°26'3 6.0
2018-Aug-15 14:00N 47°36' W 122°23'2 4.2
2018-Aug-15 13:29N 47°34' W 122°21'0 0.9
2018-Aug-15 13:00N 47°34' W 122°21'0 0.7
2018-Aug-15 12:30N 47°34' W 122°21'0 0.1
2018-Aug-15 12:00N 47°34' W 122°21'0 0.7
2018-Aug-15 11:30N 47°34' W 122°21'0 0.7
2018-Aug-15 11:00N 47°34' W 122°21'0 0.0
2018-Aug-15 10:30N 47°34' W 122°21'0 0.0
2018-Aug-15 10:00N 47°34' W 122°21'0 0.0
2018-Aug-15 09:30N 47°34' W 122°21'0 0.0
2018-Aug-15 09:00N 47°34' W 122°21'0 0.0
2018-Aug-15 08:30N 47°34' W 122°21'0 0.0
2018-Aug-15 08:00N 47°34' W 122°21'0 0.0
2018-Aug-15 07:30N 47°34' W 122°21'0 0.0
2018-Aug-15 07:00N 47°34' W 122°21'0 0.0
2018-Aug-15 06:30N 47°34' W 122°21'0 0.0
2018-Aug-15 06:00N 47°34' W 122°21'0 0.0
2018-Aug-15 05:30N 47°34' W 122°21'0 0.0
2018-Aug-15 05:00N 47°34' W 122°21'0 0.0
2018-Aug-15 04:30N 47°34' W 122°21'0 0.0
2018-Aug-15 04:00N 47°34' W 122°21'0 0.4
2018-Aug-15 03:30N 47°34' W 122°21'0 1.0
2018-Aug-15 03:00N 47°34' W 122°21'2 3.6
2018-Aug-15 02:30N 47°35' W 122°22'1 2.9
2018-Aug-15 02:00N 47°36' W 122°23'3 5.9
2018-Aug-15 01:30N 47°38' W 122°27'3 6.1
2018-Aug-15 01:00N 47°41' W 122°28'3 6.3
2018-Aug-15 00:30N 47°44' W 122°27'3 6.3
2018-Aug-15 00:00N 47°47' W 122°27'3 6.4
2018-Aug-14 23:30N 47°50' W 122°28'3 6.8
2018-Aug-14 23:00N 47°54' W 122°30'3 6.6
2018-Aug-14 22:30N 47°56' W 122°32'30 4.1
2018-Aug-14 15:23N 48°25' W 122°45'3 6.2
2018-Aug-14 14:57N 48°27' W 122°45'3 6.1
2018-Aug-14 14:30N 48°30' W 122°45'3 5.4
2018-Aug-14 14:00N 48°33' W 122°45'2 5.0
2018-Aug-14 13:30N 48°35' W 122°45'3 5.0
2018-Aug-14 13:00N 48°38' W 122°44'2 4.8
2018-Aug-14 12:30N 48°40' W 122°43'12 6.0
2018-Aug-14 10:25N 48°49' W 122°57'3 6.8
2018-Aug-14 09:58N 48°50' W 123°01'3 6.3
2018-Aug-14 09:30N 48°52' W 123°04'3 6.9
2018-Aug-14 09:00N 48°54' W 123°08'4 7.0
2018-Aug-14 08:30N 48°56' W 123°12'3 6.8
2018-Aug-14 08:00N 48°58' W 123°17'4 7.0
2018-Aug-14 07:29N 49°01' W 123°21'4 7.5
2018-Aug-14 07:00N 49°03' W 123°25'4 7.2
2018-Aug-14 06:30N 49°06' W 123°28'3 6.8
2018-Aug-14 06:00N 49°08' W 123°32'4 7.2
2018-Aug-14 05:30N 49°11' W 123°36'4 7.1
2018-Aug-14 04:59N 49°13' W 123°40'3 6.7
2018-Aug-14 04:30N 49°15' W 123°44'3 6.8
2018-Aug-14 04:00N 49°18' W 123°48'3 6.5
2018-Aug-14 03:30N 49°20' W 123°51'3 6.2
2018-Aug-14 03:00N 49°22' W 123°55'3 6.0
2018-Aug-14 02:27N 49°24' W 123°59'22 5.8
2018-Aug-13 22:42N 49°36' W 124°27'3 6.3
2018-Aug-13 22:11N 49°38' W 124°30'1 6.5
2018-Aug-13 22:00N 49°39' W 124°32'3 1.6
2018-Aug-13 20:24N 49°42' W 124°33'0 0.0
2018-Aug-13 19:41N 49°42' W 124°33'0 0.0
2018-Aug-13 19:25N 49°42' W 124°33'0 0.0
2018-Aug-13 18:53N 49°42' W 124°33'0 0.0
2018-Aug-13 18:28N 49°42' W 124°33'0 0.0
2018-Aug-13 17:55N 49°42' W 124°33'0 0.0
2018-Aug-13 17:29N 49°42' W 124°33'0 0.0
2018-Aug-13 16:51N 49°42' W 124°33'0 0.1
2018-Aug-13 12:33N 49°41' W 124°34'0 2.9
2018-Aug-13 12:30N 49°41' W 124°34'1 2.5
2018-Aug-13 12:00N 49°40' W 124°33'2 3.2
2018-Aug-13 11:27N 49°39' W 124°32'1 3.2
2018-Aug-13 10:59N 49°38' W 124°30'2 3.3
2018-Aug-13 10:28N 49°37' W 124°28'2 3.6
2018-Aug-13 09:47N 49°35' W 124°25'11 3.9
2018-Aug-13 06:51N 49°29' W 124°10'2 3.8
2018-Aug-13 06:28N 49°28' W 124°08'2 3.4
2018-Aug-13 06:00N 49°28' W 124°06'2 3.4
2018-Aug-13 05:30N 49°27' W 124°03'2 3.5
2018-Aug-13 05:00N 49°26' W 124°01'2 3.2
2018-Aug-13 04:30N 49°25' W 123°59'2 3.4
2018-Aug-13 03:59N 49°24' W 123°57'2 3.3
2018-Aug-13 03:30N 49°23' W 123°55'2 3.9
2018-Aug-13 03:00N 49°22' W 123°53'2 4.3
2018-Aug-13 02:30N 49°21' W 123°50'2 4.3
2018-Aug-13 02:00N 49°19' W 123°47'2 4.9
2018-Aug-13 01:30N 49°18' W 123°45'2 4.3
2018-Aug-13 01:00N 49°16' W 123°42'2 4.7
2018-Aug-13 00:30N 49°15' W 123°39'2 4.6
2018-Aug-13 00:00N 49°13' W 123°37'2 4.7
2018-Aug-12 23:30N 49°12' W 123°34'3 5.1
2018-Aug-12 23:00N 49°10' W 123°31'3 5.2
2018-Aug-12 22:30N 49°08' W 123°28'3 6.3
2018-Aug-12 22:00N 49°06' W 123°25'4 7.8
2018-Aug-12 21:30N 49°04' W 123°20'3 5.9
2018-Aug-12 21:00N 49°02' W 123°17'3 5.7
2018-Aug-12 20:27N 48°60' W 123°13'2 5.3
2018-Aug-12 20:00N 48°58' W 123°10'2 4.7
2018-Aug-12 19:30N 48°57' W 123°07'2 4.2
2018-Aug-12 18:59N 48°55' W 123°05'2 4.9
2018-Aug-12 18:29N 48°54' W 123°02'3 4.6
2018-Aug-12 17:50N 48°52' W 122°59'1 3.4
2018-Aug-12 17:26N 48°51' W 122°57'12 4.9
2018-Aug-12 15:05N 48°43' W 122°44'1 5.6
2018-Aug-12 14:59N 48°43' W 122°43'3 6.1
2018-Aug-12 14:30N 48°40' W 122°42'3 6.0
2018-Aug-12 14:00N 48°37' W 122°44'3 5.7
2018-Aug-12 13:30N 48°34' W 122°45'3 6.5
2018-Aug-12 13:00N 48°31' W 122°44'36 5.8
2018-Aug-12 06:54N 47°57' W 122°31'3 7.6
2018-Aug-12 06:30N 47°54' W 122°28'4 8.0
2018-Aug-12 06:00N 47°50' W 122°27'4 7.7
2018-Aug-12 05:30N 47°47' W 122°26'4 8.2
2018-Aug-12 05:00N 47°42' W 122°26'4 8.2
2018-Aug-12 04:30N 47°38' W 122°27'4 7.3
2018-Aug-12 04:00N 47°36' W 122°23'2 3.6
2018-Aug-12 03:30N 47°35' W 122°22'2 3.8
2018-Aug-12 03:00N 47°33' W 122°20'2 4.0
2018-Aug-12 02:30N 47°35' W 122°22'1 1.2
2018-Aug-12 02:00N 47°35' W 122°22'1 1.8
2018-Aug-12 01:30N 47°34' W 122°21'0 0.0
2018-Aug-12 01:00N 47°34' W 122°21'0 0.0
2018-Aug-12 00:30N 47°34' W 122°21'0 0.0
2018-Aug-12 00:00N 47°34' W 122°21'0 0.0
2018-Aug-11 23:30N 47°34' W 122°21'0 0.0
2018-Aug-11 23:00N 47°34' W 122°21'0 0.0
2018-Aug-11 22:30N 47°34' W 122°21'0 0.0
2018-Aug-11 22:00N 47°34' W 122°21'0 0.0
2018-Aug-11 21:30N 47°34' W 122°21'0 0.0
2018-Aug-11 21:00N 47°34' W 122°21'0 0.0
2018-Aug-11 20:30N 47°34' W 122°21'0 0.0
2018-Aug-11 20:00N 47°34' W 122°21'1 2.0
2018-Aug-11 19:30N 47°35' W 122°22'0 0.8
2018-Aug-11 19:00N 47°36' W 122°22'3 5.1
2018-Aug-11 18:30N 47°33' W 122°21'0 1.0
2018-Aug-11 18:00N 47°33' W 122°20'2 4.3
2018-Aug-11 17:30N 47°35' W 122°22'3 5.1
2018-Aug-11 17:00N 47°35' W 122°25'4 7.4
2018-Aug-11 16:30N 47°31' W 122°25'4 8.0
2018-Aug-11 16:00N 47°28' W 122°24'4 7.8
2018-Aug-11 15:30N 47°24' W 122°21'3 6.4
2018-Aug-11 15:00N 47°21' W 122°24'4 8.0
2018-Aug-11 14:30N 47°18' W 122°28'4 4.7
2018-Aug-11 13:45N 47°17' W 122°23'0 0.0
2018-Aug-11 13:30N 47°17' W 122°23'4 7.3
2018-Aug-11 13:00N 47°18' W 122°28'4 7.5
2018-Aug-11 12:30N 47°21' W 122°25'4 7.2
2018-Aug-11 12:00N 47°25' W 122°23'4 8.9
2018-Aug-11 11:30N 47°29' W 122°24'4 9.0
2018-Aug-11 11:00N 47°34' W 122°25'3 5.8
2018-Aug-11 10:30N 47°35' W 122°22'1 2.2
2018-Aug-11 10:00N 47°34' W 122°21'0 0.0
2018-Aug-11 09:30N 47°34' W 122°21'0 0.0
2018-Aug-11 09:00N 47°34' W 122°21'0 0.0
2018-Aug-11 08:30N 47°34' W 122°21'0 0.0
2018-Aug-11 08:00N 47°34' W 122°21'0 0.0
2018-Aug-11 07:30N 47°34' W 122°21'0 0.0
2018-Aug-11 07:00N 47°34' W 122°21'0 0.0
2018-Aug-11 06:30N 47°34' W 122°21'0 0.0
2018-Aug-11 06:00N 47°34' W 122°21'0 0.0
2018-Aug-11 05:30N 47°34' W 122°21'0 0.0
2018-Aug-11 05:00N 47°34' W 122°21'0 0.0
2018-Aug-11 04:30N 47°34' W 122°21'0 0.0
2018-Aug-11 04:00N 47°34' W 122°21'0 0.0
2018-Aug-11 03:30N 47°34' W 122°21'0 0.0
2018-Aug-11 03:00N 47°34' W 122°21'0 0.0
2018-Aug-11 02:30N 47°34' W 122°21'0 0.7
2018-Aug-11 02:00N 47°34' W 122°21'0 0.3
2018-Aug-11 01:30N 47°34' W 122°21'1 1.0
2018-Aug-11 01:00N 47°34' W 122°21'1 1.3
2018-Aug-11 00:30N 47°35' W 122°22'3 6.7
2018-Aug-11 00:00N 47°38' W 122°25'3 6.4
2018-Aug-10 23:30N 47°41' W 122°26'4 7.5
2018-Aug-10 23:00N 47°44' W 122°25'4 7.7
2018-Aug-10 22:30N 47°48' W 122°24'4 7.1
2018-Aug-10 22:00N 47°51' W 122°22'3 6.8
2018-Aug-10 21:30N 47°54' W 122°20'4 7.1
2018-Aug-10 20:59N 47°58' W 122°18'  

Dump ship's entire track history